Time;durP1;ratioP1;P1;durP2;ratioP2;P2;SDS_P1;SDS_P2;PMS_P1;PMS_P2;Temp;Humidity;BMP_temperature;BMP_pressure;BME280_temperature;BME280_humidity;BME280_pressure;Samples;Min_cycle;Max_cycle;Signal;HPM_P1;HPM_P2
2022/08/26 00:02:01;;;;;;;10.37;6.43;;;22.70;99.90;;;;;;4153834;28;20601;-80
2022/08/26 00:04:03;;;;;;;10.83;6.70;;;22.70;99.90;;;;;;4132793;28;20219;-80
2022/08/26 00:06:06;;;;;;;10.60;6.83;;;22.60;99.90;;;;;;4138230;28;20686;-80
2022/08/26 00:08:09;;;;;;;13.80;7.30;;;22.60;99.90;;;;;;4154322;28;20210;-80
2022/08/26 00:10:11;;;;;;;11.00;6.93;;;22.60;99.90;;;;;;4136525;28;20231;-80
2022/08/26 00:12:13;;;;;;;10.37;6.80;;;22.50;99.90;;;;;;4160666;28;20219;-80
2022/08/26 00:14:16;;;;;;;11.33;7.50;;;22.50;99.90;;;;;;4153674;28;20289;-80
2022/08/26 00:16:18;;;;;;;11.60;6.97;;;22.50;99.90;;;;;;4134734;28;20849;-80
2022/08/26 00:18:21;;;;;;;14.70;6.97;;;22.40;99.90;;;;;;4154380;28;20629;-80
2022/08/26 00:20:31;;;;;;;10.73;6.47;;;22.40;99.90;;;;;;4158794;28;20833;-80
2022/08/26 00:22:33;;;;;;;13.47;6.77;;;22.40;99.90;;;;;;4156826;28;20332;-80
2022/08/26 00:24:35;;;;;;;11.13;7.00;;;22.40;99.90;;;;;;4155469;28;20204;-80
2022/08/26 00:26:38;;;;;;;11.40;6.87;;;22.40;99.90;;;;;;4135055;28;20299;-80
2022/08/26 00:28:40;;;;;;;11.80;6.90;;;22.40;99.90;;;;;;4153483;28;20236;-80
2022/08/26 00:30:46;;;;;;;10.77;6.17;;;22.40;99.90;;;;;;4152758;28;20225;-80
2022/08/26 00:32:48;;;;;;;11.83;7.07;;;22.40;99.90;;;;;;4156055;28;20305;-80
2022/08/26 00:34:50;;;;;;;9.80;6.77;;;22.30;99.90;;;;;;4153080;28;20297;-80
2022/08/26 00:36:52;;;;;;;11.50;7.40;;;22.30;99.90;;;;;;4151154;28;20232;-81
2022/08/26 00:38:54;;;;;;;9.80;6.60;;;22.30;99.90;;;;;;4152284;28;20652;-80
2022/08/26 00:40:57;;;;;;;9.90;6.50;;;22.30;99.90;;;;;;4153765;28;20729;-80
2022/08/26 00:43:00;;;;;;;10.30;6.43;;;22.30;99.90;;;;;;4155193;28;20241;-80
2022/08/26 00:45:02;;;;;;;10.57;6.93;;;22.30;99.90;;;;;;4140313;28;20316;-80
2022/08/26 00:47:19;;;;;;;9.73;6.73;;;22.20;99.90;;;;;;4137992;28;20218;-80
2022/08/26 00:49:26;;;;;;;9.70;6.60;;;22.20;99.90;;;;;;4152633;28;20727;-80
2022/08/26 00:51:29;;;;;;;10.33;6.83;;;22.20;99.90;;;;;;4137072;28;20212;-81
2022/08/26 00:53:34;;;;;;;8.97;6.53;;;22.20;99.90;;;;;;4138529;28;20219;-80
2022/08/26 00:55:40;;;;;;;11.50;6.77;;;22.10;99.90;;;;;;4134085;28;20301;-80
2022/08/26 00:57:43;;;;;;;11.37;6.83;;;22.10;99.90;;;;;;4159944;28;20211;-80
2022/08/26 00:59:46;;;;;;;9.37;6.67;;;22.10;99.90;;;;;;4156315;28;20256;-80
2022/08/26 01:01:49;;;;;;;12.27;7.10;;;22.10;99.90;;;;;;4139741;28;20543;-80
2022/08/26 01:03:53;;;;;;;9.70;6.73;;;22.10;99.90;;;;;;4139879;28;20268;-80
2022/08/26 01:05:58;;;;;;;13.43;7.13;;;22.10;99.90;;;;;;4138103;28;20351;-80
2022/08/26 01:08:00;;;;;;;10.97;7.13;;;22.00;99.90;;;;;;4137504;28;20221;-80
2022/08/26 01:10:06;;;;;;;14.53;7.37;;;22.00;99.90;;;;;;4135448;28;20211;-80
2022/08/26 01:12:08;;;;;;;11.93;7.60;;;22.00;99.90;;;;;;4140297;28;20217;-80
2022/08/26 01:14:11;;;;;;;13.27;6.83;;;22.00;99.90;;;;;;4137817;28;20209;-80
2022/08/26 01:16:15;;;;;;;11.37;7.43;;;22.00;99.90;;;;;;4161969;28;20979;-80
2022/08/26 01:18:18;;;;;;;8.97;6.73;;;21.90;99.90;;;;;;4140913;28;20301;-80
2022/08/26 01:20:36;;;;;;;13.03;7.33;;;21.90;99.90;;;;;;4141601;28;20216;-79
2022/08/26 01:22:50;;;;;;;11.03;7.33;;;21.90;99.90;;;;;;4147088;28;20235;-80
2022/08/26 01:24:52;;;;;;;10.73;7.13;;;21.90;99.90;;;;;;4165072;28;20286;-80
2022/08/26 01:26:57;;;;;;;11.97;6.93;;;21.90;99.90;;;;;;4133014;28;20224;-80
2022/08/26 01:29:02;;;;;;;10.83;7.67;;;21.80;99.90;;;;;;4146756;28;20232;-80
2022/08/26 01:31:07;;;;;;;10.53;7.27;;;21.80;99.90;;;;;;4140630;28;20218;-80
2022/08/26 01:33:14;;;;;;;11.30;6.80;;;21.80;99.90;;;;;;4157429;28;20304;-80
2022/08/26 01:35:16;;;;;;;9.87;6.80;;;21.80;99.90;;;;;;4136516;28;20220;-80
2022/08/26 01:37:22;;;;;;;9.23;6.80;;;21.80;99.90;;;;;;4138447;28;20787;-80
2022/08/26 01:39:25;;;;;;;12.93;7.50;;;21.80;99.90;;;;;;4157602;28;20294;-80
2022/08/26 01:41:27;;;;;;;13.10;7.87;;;21.80;99.90;;;;;;4137555;28;20838;-80
2022/08/26 01:43:32;;;;;;;11.97;7.60;;;21.70;99.90;;;;;;4153562;28;20387;-80
2022/08/26 01:45:35;;;;;;;15.70;8.00;;;21.70;99.90;;;;;;4154035;28;20199;-80
2022/08/26 01:47:38;;;;;;;10.97;7.73;;;21.70;99.90;;;;;;4155103;28;20789;-79
2022/08/26 01:49:42;;;;;;;13.87;8.00;;;21.70;99.90;;;;;;4133809;28;20442;-79
2022/08/26 01:51:46;;;;;;;11.27;7.50;;;21.70;99.90;;;;;;4151473;28;20225;-79
2022/08/26 01:53:48;;;;;;;9.40;7.17;;;21.70;99.90;;;;;;4130141;28;20766;-79
2022/08/26 01:55:55;;;;;;;11.90;7.77;;;21.70;99.90;;;;;;4132422;28;20771;-79
2022/08/26 01:58:01;;;;;;;12.00;7.30;;;21.60;99.90;;;;;;4130943;28;20742;-79
2022/08/26 02:00:07;;;;;;;13.47;7.37;;;21.60;99.90;;;;;;4132750;28;20215;-79
2022/08/26 02:02:09;;;;;;;11.57;8.27;;;21.60;99.90;;;;;;4138159;28;20207;-79
2022/08/26 02:04:17;;;;;;;13.57;7.97;;;21.60;99.90;;;;;;4138921;28;20208;-79
2022/08/26 02:06:20;;;;;;;11.13;7.67;;;21.60;99.90;;;;;;4126505;28;20247;-79
2022/08/26 02:08:27;;;;;;;11.50;7.90;;;21.50;99.90;;;;;;4151432;28;21025;-79
2022/08/26 02:10:29;;;;;;;12.80;8.03;;;21.60;99.90;;;;;;4136220;28;20215;-80
2022/08/26 02:12:33;;;;;;;12.63;8.70;;;21.70;99.90;;;;;;4138265;28;20215;-79
2022/08/26 02:14:40;;;;;;;12.47;7.87;;;21.50;99.90;;;;;;4138484;28;20291;-79
2022/08/26 02:16:46;;;;;;;11.10;8.43;;;21.50;99.90;;;;;;4158237;28;20218;-79
2022/08/26 02:18:49;;;;;;;15.50;8.50;;;21.50;99.90;;;;;;4157057;28;20740;-79
2022/08/26 02:20:54;;;;;;;11.77;7.90;;;21.50;99.90;;;;;;4131734;28;20595;-79
2022/08/26 02:22:56;;;;;;;14.40;8.90;;;21.50;99.90;;;;;;4134603;28;20284;-79
2022/08/26 02:25:00;;;;;;;14.53;9.20;;;21.40;99.90;;;;;;4133999;28;20198;-79
2022/08/26 02:27:02;;;;;;;13.37;8.37;;;21.40;99.90;;;;;;4133356;28;20204;-79
2022/08/26 02:29:12;;;;;;;13.30;8.23;;;21.40;99.90;;;;;;4153284;28;20239;-79
2022/08/26 02:31:14;;;;;;;15.73;8.60;;;21.40;99.90;;;;;;4153287;28;20199;-79
2022/08/26 02:33:19;;;;;;;14.10;8.67;;;21.40;99.90;;;;;;4135767;28;20221;-79
2022/08/26 02:35:23;;;;;;;12.30;7.87;;;21.40;99.90;;;;;;4124049;28;20217;-80
2022/08/26 02:37:29;;;;;;;11.93;7.63;;;21.40;99.90;;;;;;4150351;28;20273;-79
2022/08/26 02:39:32;;;;;;;16.27;8.73;;;21.40;99.90;;;;;;4151463;28;20329;-79
2022/08/26 02:41:34;;;;;;;13.17;8.40;;;21.30;99.90;;;;;;4150525;28;20230;-81
2022/08/26 02:43:36;;;;;;;13.33;8.60;;;21.30;99.90;;;;;;4149292;28;20212;-79
2022/08/26 02:45:40;;;;;;;12.90;8.30;;;21.30;99.90;;;;;;4152570;28;20187;-80
2022/08/26 02:47:42;;;;;;;10.20;8.27;;;21.30;99.90;;;;;;4138598;28;20215;-80
2022/08/26 02:49:44;;;;;;;11.67;8.30;;;21.30;99.90;;;;;;4135476;28;20247;-81
2022/08/26 02:51:48;;;;;;;13.83;8.60;;;21.30;99.90;;;;;;4136287;28;20243;-79
2022/08/26 02:53:54;;;;;;;11.83;8.17;;;21.30;99.90;;;;;;4150846;28;20232;-79
2022/08/26 02:56:38;;;;;;;10.93;7.97;;;21.20;99.90;;;;;;4150416;28;20232;-79
2022/08/26 02:58:43;;;;;;;14.53;8.63;;;21.20;99.90;;;;;;4150893;28;20234;-79
2022/08/26 03:00:47;;;;;;;13.13;8.60;;;21.20;99.90;;;;;;4157073;28;20301;-79
2022/08/26 03:02:49;;;;;;;10.87;8.17;;;21.20;99.90;;;;;;4154122;28;20214;-79
2022/08/26 03:04:50;;;;;;;12.33;9.13;;;21.20;99.90;;;;;;4152376;28;20200;-80
2022/08/26 03:06:52;;;;;;;13.17;9.30;;;21.20;99.90;;;;;;4134186;28;20208;-79
2022/08/26 03:08:55;;;;;;;12.73;9.00;;;21.20;99.90;;;;;;4138437;28;20318;-79
2022/08/26 03:10:57;;;;;;;15.80;9.33;;;21.20;99.90;;;;;;4150523;28;20207;-80
2022/08/26 03:12:59;;;;;;;13.77;9.50;;;21.20;99.90;;;;;;4148638;28;20227;-79
2022/08/26 03:15:02;;;;;;;14.67;9.17;;;21.20;99.90;;;;;;4151920;28;20211;-79
2022/08/26 03:17:05;;;;;;;12.10;8.90;;;21.20;99.90;;;;;;4136421;28;20241;-79
2022/08/26 03:19:10;;;;;;;12.70;9.03;;;21.20;99.90;;;;;;4152603;28;20226;-79
2022/08/26 03:21:22;;;;;;;12.37;9.10;;;21.10;99.90;;;;;;4156923;28;20211;-79
2022/08/26 03:23:24;;;;;;;11.27;8.47;;;21.20;99.90;;;;;;4132144;28;20214;-80
2022/08/26 03:25:26;;;;;;;14.13;8.10;;;21.20;99.90;;;;;;4153524;28;20203;-79
2022/08/26 03:27:28;;;;;;;12.33;8.53;;;21.20;99.90;;;;;;4139434;28;20303;-79
2022/08/26 03:31:50;;;;;;;13.83;9.10;;;21.20;99.90;;;;;;4150441;28;20195;-79
2022/08/26 03:33:53;;;;;;;15.03;9.67;;;21.20;99.90;;;;;;4152438;28;20302;-79
2022/08/26 03:35:55;;;;;;;14.87;9.10;;;21.10;99.90;;;;;;4151974;28;20294;-79
2022/08/26 03:37:57;;;;;;;13.47;9.43;;;21.10;99.90;;;;;;4138131;28;20219;-79
2022/08/26 03:39:59;;;;;;;13.23;9.37;;;21.10;99.90;;;;;;4135248;28;20221;-80
2022/08/26 03:42:01;;;;;;;14.00;9.13;;;21.10;99.90;;;;;;4151152;28;20216;-79
2022/08/26 03:44:04;;;;;;;13.57;9.53;;;21.10;99.90;;;;;;4154521;28;20290;-79
2022/08/26 03:46:06;;;;;;;14.90;10.00;;;21.10;99.90;;;;;;4152960;28;20222;-79
2022/08/26 03:48:08;;;;;;;19.33;10.60;;;21.10;99.90;;;;;;4154974;28;20214;-81
2022/08/26 03:50:15;;;;;;;14.93;9.53;;;21.00;99.90;;;;;;4153574;28;20216;-79
2022/08/26 03:52:17;;;;;;;14.10;9.53;;;21.00;99.90;;;;;;4130562;28;20217;-79
2022/08/26 03:54:19;;;;;;;14.50;9.80;;;21.00;99.90;;;;;;4155436;28;20217;-79
2022/08/26 03:56:21;;;;;;;14.13;9.80;;;21.00;99.90;;;;;;4152132;28;21194;-79
2022/08/26 03:58:24;;;;;;;12.37;9.77;;;21.00;99.90;;;;;;4154115;28;20727;-79
2022/08/26 04:00:26;;;;;;;15.40;10.60;;;21.00;99.90;;;;;;4148948;28;20567;-78
2022/08/26 04:02:28;;;;;;;12.23;9.63;;;21.00;99.90;;;;;;4135585;28;20235;-79
2022/08/26 04:04:29;;;;;;;15.73;10.50;;;20.90;99.90;;;;;;4150661;28;20203;-80
2022/08/26 04:06:41;;;;;;;13.83;10.30;;;20.90;99.90;;;;;;4151360;28;20234;-78
2022/08/26 04:08:43;;;;;;;14.27;9.40;;;20.90;99.90;;;;;;4149292;28;20306;-79
2022/08/26 04:10:45;;;;;;;14.73;10.30;;;20.90;99.90;;;;;;4150936;28;20203;-79
2022/08/26 04:12:48;;;;;;;15.50;10.20;;;20.90;99.90;;;;;;4154529;28;20208;-78
2022/08/26 04:14:49;;;;;;;14.83;10.63;;;20.90;99.90;;;;;;4134365;28;20213;-79
2022/08/26 04:16:53;;;;;;;15.57;10.47;;;20.90;99.90;;;;;;4154124;28;20685;-79
2022/08/26 04:18:55;;;;;;;16.00;11.27;;;20.90;99.90;;;;;;4135960;28;20683;-78
2022/08/26 04:20:57;;;;;;;16.77;10.80;;;20.90;99.90;;;;;;4149598;28;20228;-79
2022/08/26 04:23:00;;;;;;;17.70;11.20;;;20.90;99.90;;;;;;4134196;28;20293;-78
2022/08/26 04:25:02;;;;;;;14.23;10.43;;;20.90;99.90;;;;;;4151383;28;20208;-79
2022/08/26 04:27:04;;;;;;;16.70;11.40;;;20.80;99.90;;;;;;4148564;28;20207;-79
2022/08/26 04:29:08;;;;;;;16.30;11.47;;;20.80;99.90;;;;;;4157161;28;20233;-79
2022/08/26 04:31:11;;;;;;;16.30;10.77;;;20.80;99.90;;;;;;4130813;28;20306;-80
2022/08/26 04:33:13;;;;;;;18.43;11.93;;;20.80;99.90;;;;;;4151734;28;20231;-78
2022/08/26 04:35:15;;;;;;;16.67;11.93;;;20.80;99.90;;;;;;4137396;28;20204;-79
2022/08/26 04:37:17;;;;;;;16.87;11.67;;;20.80;99.90;;;;;;4150498;28;20220;-80
2022/08/26 04:39:20;;;;;;;20.33;12.77;;;20.80;99.90;;;;;;4149212;28;20325;-79
2022/08/26 04:41:22;;;;;;;19.70;12.43;;;20.70;99.90;;;;;;4147981;28;20588;-80
2022/08/26 04:43:29;;;;;;;20.50;12.43;;;20.70;99.90;;;;;;4152552;28;20640;-79
2022/08/26 04:45:31;;;;;;;16.73;11.83;;;20.70;99.90;;;;;;4133137;28;20216;-79
2022/08/26 04:47:33;;;;;;;18.73;11.60;;;20.70;99.90;;;;;;4138184;28;20251;-80
2022/08/26 04:49:36;;;;;;;17.73;11.13;;;20.70;99.90;;;;;;4149874;28;20319;-79
2022/08/26 04:51:39;;;;;;;15.40;10.33;;;20.70;99.90;;;;;;4155241;28;20207;-79
2022/08/26 04:53:41;;;;;;;15.77;10.63;;;20.70;99.90;;;;;;4131486;28;20303;-79
2022/08/26 04:55:44;;;;;;;13.23;10.03;;;20.70;99.90;;;;;;4137699;28;20272;-79
2022/08/26 04:57:46;;;;;;;14.63;10.83;;;20.70;99.90;;;;;;4148614;28;21104;-79
2022/08/26 04:59:48;;;;;;;14.67;10.37;;;20.70;99.90;;;;;;4137396;28;20247;-79
2022/08/26 05:01:52;;;;;;;15.07;9.93;;;20.70;99.90;;;;;;4153550;28;20214;-79
2022/08/26 05:03:54;;;;;;;15.33;10.67;;;20.80;99.90;;;;;;4149133;28;20211;-79
2022/08/26 05:05:56;;;;;;;17.80;10.53;;;20.80;99.90;;;;;;4133360;28;20246;-79
2022/08/26 05:07:58;;;;;;;15.30;10.53;;;20.80;99.90;;;;;;4155161;28;20210;-79
2022/08/26 05:10:00;;;;;;;14.70;10.33;;;20.80;99.90;;;;;;4149690;28;20215;-79
2022/08/26 05:12:04;;;;;;;17.67;10.67;;;20.80;99.90;;;;;;4148225;28;20218;-79
2022/08/26 05:14:06;;;;;;;14.63;10.67;;;20.80;99.90;;;;;;4155101;28;20241;-79
2022/08/26 05:16:10;;;;;;;16.53;10.87;;;20.90;99.90;;;;;;4148093;28;20279;-79
2022/08/26 05:18:14;;;;;;;15.37;10.80;;;20.90;99.90;;;;;;4151077;28;20234;-79
2022/08/26 05:20:15;;;;;;;16.60;10.40;;;21.00;99.90;;;;;;4146024;28;20230;-79
2022/08/26 05:22:18;;;;;;;18.33;11.03;;;21.00;99.90;;;;;;4147316;28;20215;-79
2022/08/26 05:24:20;;;;;;;18.13;11.60;;;21.10;99.90;;;;;;4151288;28;20196;-79
2022/08/26 05:26:24;;;;;;;19.67;12.13;;;21.00;99.90;;;;;;4147753;28;20666;-79
2022/08/26 05:28:29;;;;;;;17.97;11.30;;;21.10;99.90;;;;;;4130763;28;20241;-80
2022/08/26 05:30:31;;;;;;;14.47;10.47;;;21.20;99.90;;;;;;4146649;28;20793;-80
2022/08/26 05:32:33;;;;;;;14.70;10.70;;;21.20;99.90;;;;;;4150425;28;20298;-79
2022/08/26 05:34:52;;;;;;;16.90;10.83;;;21.20;99.90;;;;;;4135605;28;20214;-79
2022/08/26 05:36:54;;;;;;;16.00;10.83;;;21.20;99.90;;;;;;4138095;28;20251;-79
2022/08/26 05:38:56;;;;;;;15.50;10.80;;;21.30;99.90;;;;;;4156085;28;20253;-80
2022/08/26 05:40:58;;;;;;;15.73;10.73;;;21.30;99.90;;;;;;4156876;28;20233;-80
2022/08/26 05:43:14;;;;;;;15.57;10.57;;;21.30;99.90;;;;;;4131408;28;20228;-78
2022/08/26 05:45:17;;;;;;;13.70;9.93;;;21.30;99.90;;;;;;4133131;28;20213;-76
2022/08/26 05:47:19;;;;;;;15.33;10.53;;;21.30;99.90;;;;;;4155691;28;20198;-76
2022/08/26 05:49:31;;;;;;;;;;;;;;;;;;;;;
2022/08/26 06:07:17;;;;;;;14.77;9.87;;;21.60;99.90;;;;;;3923384;30;20220;-77
2022/08/26 06:12:44;;;;;;;13.47;9.83;;;21.70;99.90;;;;;;4095353;28;20218;-76
2022/08/26 06:15:21;;;;;;;12.17;9.37;;;21.80;99.90;;;;;;4139971;28;20201;-76
2022/08/26 06:20:20;;;;;;;13.83;9.07;;;22.00;99.90;;;;;;4148464;28;20330;-77
2022/08/26 06:27:08;;;;;;;12.13;9.30;;;22.20;99.90;;;;;;4152865;28;20274;-76
2022/08/26 06:29:10;;;;;;;12.50;9.60;;;22.20;99.90;;;;;;4150393;28;20234;-77
2022/08/26 06:31:12;;;;;;;11.70;9.27;;;22.30;99.90;;;;;;4153361;28;20641;-77
2022/08/26 06:33:14;;;;;;;11.23;8.90;;;22.30;99.90;;;;;;4136152;28;20223;-77
2022/08/26 06:35:16;;;;;;;13.43;8.80;;;22.40;99.90;;;;;;4139263;28;20211;-77
2022/08/26 06:37:18;;;;;;;12.63;9.73;;;22.50;99.90;;;;;;4130984;28;20723;-77
2022/08/26 06:39:21;;;;;;;13.30;9.53;;;22.50;99.90;;;;;;4152700;28;20243;-77
2022/08/26 06:41:24;;;;;;;13.37;9.20;;;22.60;99.90;;;;;;4155214;28;20444;-77
2022/08/26 06:43:28;;;;;;;13.27;9.70;;;22.60;99.90;;;;;;4151218;28;20217;-76
2022/08/26 06:45:37;;;;;;;18.83;10.87;;;22.70;99.90;;;;;;4147033;28;20926;-76
2022/08/26 06:47:43;;;;;;;16.80;10.80;;;22.70;99.90;;;;;;4147861;28;20646;-77
2022/08/26 06:50:17;;;;;;;16.70;11.50;;;22.80;99.90;;;;;;4149954;28;20302;-76
2022/08/26 06:58:21;;;;;;;24.93;13.40;;;22.90;99.90;;;;;;4148163;28;20240;-76
2022/08/26 07:00:23;;;;;;;22.30;13.20;;;22.90;99.90;;;;;;4150737;28;20214;-76
2022/08/26 07:02:25;;;;;;;19.00;13.83;;;22.90;99.90;;;;;;4152305;28;20242;-76
2022/08/26 07:04:28;;;;;;;19.07;13.33;;;22.90;99.90;;;;;;4158004;28;20243;-76
2022/08/26 07:06:34;;;;;;;19.83;12.60;;;22.90;99.90;;;;;;4153884;28;20265;-76
2022/08/26 07:08:36;;;;;;;17.90;12.93;;;23.00;99.90;;;;;;4151687;28;20766;-76
2022/08/26 07:10:39;;;;;;;18.60;12.40;;;23.00;99.90;;;;;;4151358;28;20258;-76
2022/08/26 07:12:42;;;;;;;15.33;11.93;;;23.00;99.90;;;;;;4150725;28;20242;-76
2022/08/26 07:14:43;;;;;;;15.90;11.63;;;23.00;99.90;;;;;;4151268;28;20214;-76
2022/08/26 07:16:46;;;;;;;16.60;11.87;;;23.10;99.90;;;;;;4133214;28;20609;-75
2022/08/26 07:18:51;;;;;;;17.30;11.80;;;23.10;99.90;;;;;;4154201;28;20265;-76
2022/08/26 07:20:53;;;;;;;18.13;11.43;;;23.20;99.90;;;;;;4150002;28;20196;-76
2022/08/26 07:22:57;;;;;;;14.67;11.37;;;23.20;99.90;;;;;;4152087;28;20234;-76
2022/08/26 07:24:59;;;;;;;16.13;11.70;;;23.30;99.90;;;;;;4147568;28;20227;-76
2022/08/26 07:27:04;;;;;;;17.50;11.93;;;23.30;99.90;;;;;;4154207;28;20209;-76
2022/08/26 07:29:06;;;;;;;17.70;12.00;;;23.40;99.90;;;;;;4152354;28;20695;-76
2022/08/26 07:31:10;;;;;;;18.60;11.77;;;23.50;99.90;;;;;;4149324;28;20286;-76
2022/08/26 07:33:12;;;;;;;20.27;11.80;;;23.50;99.90;;;;;;4152414;28;20680;-76
2022/08/26 07:35:14;;;;;;;16.73;11.03;;;23.50;99.90;;;;;;4148438;28;20241;-76
2022/08/26 07:37:16;;;;;;;14.10;11.20;;;23.60;99.90;;;;;;4134321;28;20231;-76
2022/08/26 07:39:17;;;;;;;17.67;11.40;;;23.60;99.90;;;;;;4146053;28;20485;-76
2022/08/26 07:41:23;;;;;;;17.23;10.87;;;23.70;99.90;;;;;;4145636;28;20291;-76
2022/08/26 07:43:27;;;;;;;15.43;11.33;;;23.80;99.90;;;;;;4148897;28;20203;-76
2022/08/26 07:45:29;;;;;;;16.47;11.53;;;23.80;99.90;;;;;;4146729;28;20654;-76
2022/08/26 07:47:30;;;;;;;15.60;10.73;;;23.80;99.90;;;;;;4144848;28;20583;-76
2022/08/26 07:49:33;;;;;;;14.07;10.20;;;23.90;99.90;;;;;;4150149;28;20227;-76
2022/08/26 07:51:36;;;;;;;14.93;10.77;;;23.90;99.90;;;;;;4129188;28;20243;-77
2022/08/26 07:53:38;;;;;;;14.50;10.17;;;24.00;99.90;;;;;;4144729;28;20678;-76
2022/08/26 07:55:40;;;;;;;14.60;9.43;;;24.00;99.90;;;;;;4144933;28;20208;-78
2022/08/26 07:57:42;;;;;;;13.87;9.87;;;24.00;99.90;;;;;;4150222;28;20219;-77
2022/08/26 07:59:45;;;;;;;12.77;9.83;;;24.00;99.90;;;;;;4146332;28;20234;-77
2022/08/26 08:01:47;;;;;;;17.97;10.33;;;24.10;99.90;;;;;;4148863;28;20224;-77
2022/08/26 08:03:50;;;;;;;13.00;9.87;;;24.00;99.90;;;;;;4133323;28;20213;-79
2022/08/26 08:05:52;;;;;;;12.70;9.10;;;24.10;99.90;;;;;;4149258;28;20214;-77
2022/08/26 08:07:53;;;;;;;12.00;8.97;;;24.10;99.90;;;;;;4151322;28;20245;-78
2022/08/26 08:09:55;;;;;;;10.77;8.53;;;24.20;99.90;;;;;;4153674;28;20430;-76
2022/08/26 08:11:57;;;;;;;10.63;8.37;;;24.20;99.90;;;;;;4149778;28;20200;-77
2022/08/26 08:14:00;;;;;;;9.07;7.90;;;24.30;99.90;;;;;;4147978;28;20302;-77
2022/08/26 08:16:04;;;;;;;10.93;8.03;;;24.30;99.90;;;;;;4132174;28;20263;-77
2022/08/26 08:18:07;;;;;;;10.00;7.97;;;24.40;99.90;;;;;;4149225;28;20597;-77
2022/08/26 08:20:10;;;;;;;9.80;7.40;;;24.50;99.90;;;;;;4155792;28;20201;-77
2022/08/26 08:22:12;;;;;;;13.23;8.33;;;24.50;99.90;;;;;;4146986;28;20234;-77
2022/08/26 08:24:14;;;;;;;9.40;7.17;;;24.60;99.90;;;;;;4150188;28;20254;-77
2022/08/26 08:26:16;;;;;;;10.93;7.37;;;24.60;99.90;;;;;;4149280;28;20214;-77
2022/08/26 08:28:18;;;;;;;8.83;6.77;;;24.70;99.90;;;;;;4141796;28;20328;-77
2022/08/26 08:30:21;;;;;;;10.03;7.50;;;24.80;99.90;;;;;;4143538;28;20295;-77
2022/08/26 08:32:25;;;;;;;11.60;8.47;;;24.80;99.90;;;;;;4147925;28;20203;-77
2022/08/26 08:34:28;;;;;;;10.40;7.50;;;25.00;99.90;;;;;;4150258;28;20199;-77
2022/08/26 08:36:30;;;;;;;11.13;7.87;;;25.00;99.90;;;;;;4155951;28;20592;-78
2022/08/26 08:38:32;;;;;;;13.67;8.90;;;25.10;99.90;;;;;;4150821;28;20306;-77
2022/08/26 08:40:33;;;;;;;11.47;8.37;;;25.20;99.90;;;;;;4150169;28;20203;-77
2022/08/26 08:42:43;;;;;;;12.17;8.87;;;25.30;99.90;;;;;;4146328;28;20227;-77
2022/08/26 08:44:48;;;;;;;11.17;8.20;;;25.40;99.90;;;;;;4145710;28;20677;-77
2022/08/26 08:46:55;;;;;;;9.50;7.97;;;25.50;99.90;;;;;;4135242;28;20208;-78
2022/08/26 08:49:27;;;;;;;9.83;8.27;;;25.50;99.90;;;;;;4150278;28;20253;-77
2022/08/26 08:51:44;;;;;;;11.30;8.53;;;25.60;99.90;;;;;;4149335;28;20681;-78
2022/08/26 08:53:50;;;;;;;10.20;7.73;;;25.80;99.90;;;;;;4132976;28;20231;-77
2022/08/26 08:56:07;;;;;;;10.23;8.57;;;25.80;99.90;;;;;;4149106;28;20222;-78
2022/08/26 08:58:20;;;;;;;12.53;8.60;;;25.90;99.90;;;;;;4150148;28;20212;-77
2022/08/26 09:00:39;;;;;;;14.77;9.57;;;26.00;99.90;;;;;;4128690;28;20212;-77
2022/08/26 09:03:14;;;;;;;12.90;9.40;;;26.10;99.90;;;;;;4146605;28;20206;-77
2022/08/26 09:05:54;;;;;;;13.67;9.10;;;26.10;99.90;;;;;;4145770;28;20286;-77
2022/08/26 09:08:01;;;;;;;11.57;8.43;;;26.20;99.90;;;;;;4146674;28;20677;-77
2022/08/26 09:10:16;;;;;;;12.97;8.33;;;26.20;99.90;;;;;;4150874;28;20263;-76
2022/08/26 09:12:21;;;;;;;12.97;8.90;;;26.30;99.90;;;;;;4150501;28;20301;-77
2022/08/26 09:14:23;;;;;;;13.23;8.97;;;26.30;99.90;;;;;;4145852;28;20214;-76
2022/08/26 09:16:35;;;;;;;16.40;9.83;;;26.40;99.90;;;;;;4150550;28;20679;-77
2022/08/26 09:18:55;;;;;;;13.67;9.43;;;26.40;99.90;;;;;;4149154;28;20715;-76
2022/08/26 09:21:02;;;;;;;14.90;9.47;;;26.50;99.90;;;;;;4149974;28;20214;-78
2022/08/26 09:23:05;;;;;;;15.17;9.47;;;26.50;99.90;;;;;;4149915;28;20315;-77
2022/08/26 09:25:11;;;;;;;15.60;10.30;;;26.50;99.90;;;;;;4150265;28;20199;-77
2022/08/26 09:27:35;;;;;;;12.43;9.60;;;26.60;99.90;;;;;;4147241;28;20253;-77
2022/08/26 09:29:43;;;;;;;14.17;9.47;;;26.60;99.90;;;;;;4146766;28;20598;-78
2022/08/26 09:31:45;;;;;;;15.30;9.80;;;26.70;99.90;;;;;;4147637;28;20289;-77
2022/08/26 09:33:47;;;;;;;13.00;10.03;;;26.70;99.90;;;;;;4153779;28;20295;-77
2022/08/26 09:35:53;;;;;;;14.50;9.73;;;26.80;99.90;;;;;;4149257;28;20573;-77
2022/08/26 09:37:54;;;;;;;12.83;9.40;;;26.80;99.90;;;;;;4150980;28;20886;-77
2022/08/26 09:40:12;;;;;;;15.33;10.00;;;26.90;99.90;;;;;;4148536;28;20220;-78
2022/08/26 09:42:22;;;;;;;15.50;9.53;;;26.90;99.90;;;;;;4146649;28;20207;-77
2022/08/26 09:44:24;;;;;;;18.97;9.70;;;27.00;99.90;;;;;;4146436;28;20242;-76
2022/08/26 09:46:28;;;;;;;15.23;9.70;;;27.10;99.90;;;;;;4130785;28;20220;-77
2022/08/26 09:48:32;;;;;;;14.50;9.37;;;27.10;99.90;;;;;;4143226;28;20322;-77
2022/08/26 09:50:39;;;;;;;13.80;9.13;;;27.20;99.90;;;;;;4139713;28;20219;-77
2022/08/26 09:52:41;;;;;;;22.00;10.33;;;27.20;99.90;;;;;;4153112;28;20230;-76
2022/08/26 09:54:44;;;;;;;14.27;9.50;;;27.30;99.90;;;;;;4154310;28;20211;-77
2022/08/26 09:56:48;;;;;;;17.13;9.70;;;27.30;99.90;;;;;;4153733;28;20230;-77
2022/08/26 09:58:50;;;;;;;12.27;9.13;;;27.40;99.90;;;;;;4150938;28;20317;-78
2022/08/26 10:00:56;;;;;;;12.70;9.00;;;27.50;99.90;;;;;;4134656;28;20682;-77
2022/08/26 10:02:59;;;;;;;14.07;9.37;;;27.50;99.90;;;;;;4149099;28;20244;-78
2022/08/26 10:05:06;;;;;;;15.00;9.37;;;27.60;99.90;;;;;;4118861;28;20564;-77
2022/08/26 10:07:09;;;;;;;12.07;8.93;;;27.70;99.90;;;;;;4147450;28;20286;-78
2022/08/26 10:09:17;;;;;;;14.47;8.60;;;27.80;99.90;;;;;;4146392;28;20215;-77
2022/08/26 10:11:26;;;;;;;13.47;8.90;;;27.90;99.90;;;;;;4129824;28;20216;-77
2022/08/26 10:13:34;;;;;;;11.87;8.60;;;28.00;99.90;;;;;;4148456;28;20507;-78
2022/08/26 10:15:44;;;;;;;11.93;8.63;;;28.10;99.90;;;;;;4146195;28;20242;-77
2022/08/26 10:17:52;;;;;;;11.10;8.23;;;28.10;99.90;;;;;;4151203;28;20305;-77
2022/08/26 10:19:59;;;;;;;14.70;9.03;;;28.20;99.90;;;;;;4128501;28;20235;-77
2022/08/26 10:22:05;;;;;;;15.33;8.90;;;28.30;99.90;;;;;;4128741;28;21175;-76
2022/08/26 10:24:15;;;;;;;12.70;8.83;;;28.40;99.90;;;;;;4148024;28;20222;-77
2022/08/26 10:26:20;;;;;;;13.67;9.00;;;28.50;99.90;;;;;;4149516;28;20210;-77
2022/08/26 10:28:33;;;;;;;15.70;8.80;;;28.50;99.90;;;;;;4129446;28;20303;-79
2022/08/26 10:30:46;;;;;;;11.33;8.23;;;28.60;99.90;;;;;;4149343;28;20226;-77
2022/08/26 10:32:51;;;;;;;16.10;9.03;;;28.60;99.90;;;;;;4152735;28;20199;-77
2022/08/26 10:34:53;;;;;;;15.70;8.83;;;28.70;99.90;;;;;;4150368;28;20210;-77
2022/08/26 10:36:59;;;;;;;13.23;8.30;;;28.80;99.90;;;;;;4147944;28;20591;-75
2022/08/26 10:39:07;;;;;;;15.63;9.37;;;28.80;99.90;;;;;;4111243;28;1138169;-78
2022/08/26 10:41:14;;;;;;;11.45;8.45;;;28.90;99.90;;;;;;4144870;28;20236;-78
2022/08/26 10:43:21;;;;;;;13.80;8.50;;;29.00;99.90;;;;;;4147436;28;20235;-78
2022/08/26 10:45:28;;;;;;;14.67;8.60;;;29.10;99.70;;;;;;4132271;28;20210;-76
2022/08/26 10:47:37;;;;;;;13.93;8.90;;;29.10;99.20;;;;;;4151592;28;20720;-76
2022/08/26 10:49:40;;;;;;;17.57;8.57;;;29.20;99.00;;;;;;4148585;28;20294;-77
2022/08/26 10:51:49;;;;;;;12.27;8.27;;;29.20;98.10;;;;;;4151849;28;20210;-78
2022/08/26 10:54:02;;;;;;;13.40;8.47;;;29.30;98.40;;;;;;4150784;28;20299;-75
2022/08/26 10:56:09;;;;;;;12.70;8.43;;;29.30;97.00;;;;;;4152751;28;20290;-77
2022/08/26 10:58:27;;;;;;;15.50;8.52;;;29.40;95.50;;;;;;4153879;28;20659;-78
2022/08/26 11:02:59;;;;;;;12.77;8.50;;;29.50;93.90;;;;;;4134593;28;20299;-78
2022/08/26 11:05:04;;;;;;;13.75;7.80;;;29.60;93.60;;;;;;4152361;28;20207;-75
2022/08/26 11:07:36;;;;;;;11.23;7.13;;;29.70;92.60;;;;;;4150351;28;20316;-78
2022/08/26 11:09:46;;;;;;;12.60;7.60;;;29.90;91.00;;;;;;4154879;28;20788;-77
2022/08/26 11:11:50;;;;;;;14.93;8.07;;;30.10;90.00;;;;;;4150435;28;20668;-76
2022/08/26 11:14:01;;;;;;;13.20;7.32;;;30.20;88.80;;;;;;4150270;28;20218;-77
2022/08/26 11:16:05;;;;;;;12.55;7.47;;;30.30;85.30;;;;;;4152670;28;20207;-76
2022/08/26 11:18:27;;;;;;;11.30;7.60;;;30.40;86.00;;;;;;4132257;28;20583;-77
2022/08/26 11:20:37;;;;;;;10.70;7.13;;;30.50;83.80;;;;;;4149712;28;20204;-76